Time;durP1;ratioP1;P1;durP2;ratioP2;P2;SDS_P1;SDS_P2;PMS_P1;PMS_P2;Temp;Humidity;BMP_temperature;BMP_pressure;BME280_temperature;BME280_humidity;BME280_pressure;Samples;Min_cycle;Max_cycle;Signal;HPM_P1;HPM_P2
2021/11/07 00:04:42;;;;;;;7.08;5.25;;;;;;;4.98;68.91;97168.70;1798072;80;20991;-81
2021/11/07 00:12:23;;;;;;;5.87;4.80;;;;;;;4.95;68.84;97150.45;1798003;80;21003;-81
2021/11/07 00:14:49;;;;;;;7.50;5.67;;;;;;;4.95;69.01;97144.49;1797956;79;21034;-81
2021/11/07 00:17:18;;;;;;;6.37;5.03;;;;;;;4.93;68.91;97147.67;1798007;79;20999;-81
2021/11/07 00:19:47;;;;;;;6.85;5.70;;;;;;;4.88;68.98;97139.05;1797822;80;21053;-81
2021/11/07 00:22:26;;;;;;;9.00;6.35;;;;;;;4.83;69.11;97139.88;1797998;79;20998;-81
2021/11/07 00:27:29;;;;;;;6.22;4.67;;;;;;;4.77;69.26;97136.06;1797984;80;20967;-81
2021/11/07 00:37:50;;;;;;;7.70;5.42;;;;;;;4.73;69.38;97135.98;1727915;83;21433;-81
2021/11/07 00:40:29;;;;;;;5.60;4.30;;;;;;;4.71;69.04;97124.97;1738541;82;21028;-81
2021/11/07 00:43:05;;;;;;;6.60;4.10;;;;;;;4.73;69.07;97120.53;1733015;83;20947;-81
2021/11/07 00:48:20;;;;;;;6.62;4.60;;;;;;;4.69;69.36;97119.61;1740517;82;21040;-81
2021/11/07 00:56:17;;;;;;;8.20;5.12;;;;;;;4.57;69.66;97099.58;1740608;82;20981;-81
2021/11/07 00:58:43;;;;;;;5.85;4.10;;;;;;;4.53;69.23;97104.14;1733295;83;21329;-81
2021/11/07 01:01:13;;;;;;;4.75;3.62;;;;;;;4.56;69.26;97090.23;1727469;83;21077;-81
2021/11/07 01:03:34;;;;;;;5.90;4.00;;;;;;;4.56;69.58;97097.13;1715465;82;20992;-81
2021/11/07 01:06:01;;;;;;;5.12;4.00;;;;;;;4.56;69.24;97093.28;1740065;82;21028;-81
2021/11/07 01:08:27;;;;;;;5.45;4.08;;;;;;;4.56;69.17;97093.28;1740571;82;21028;-81
2021/11/07 01:10:54;;;;;;;4.97;3.92;;;;;;;4.58;69.27;97081.91;1740318;82;21004;-81
2021/11/07 01:13:20;;;;;;;5.62;4.47;;;;;;;4.58;68.78;97078.05;1740395;82;20981;-81
2021/11/07 01:15:45;;;;;;;5.28;4.12;;;;;;;4.62;68.82;97062.69;1755523;82;21015;-81
2021/11/07 01:18:11;;;;;;;5.70;3.90;;;;;;;4.65;68.71;97063.70;1740344;82;21425;-81
2021/11/07 01:20:37;;;;;;;7.20;4.47;;;;;;;4.71;68.76;97064.94;1740320;82;21108;-81
2021/11/07 01:25:40;;;;;;;6.87;4.92;;;;;;;4.82;68.32;97055.86;1740317;82;21052;-81
2021/11/07 01:28:04;;;;;;;6.35;4.03;;;;;;;4.91;68.26;97056.86;1740260;82;21399;-81
2021/11/07 01:30:32;;;;;;;3.92;3.02;;;;;;;4.94;67.89;97050.97;1740405;82;20997;-82
2021/11/07 01:33:03;;;;;;;7.70;3.42;;;;;;;5.01;67.96;97045.62;1733018;83;20982;-81
2021/11/07 01:35:36;;;;;;;6.85;4.65;;;;;;;5.07;67.68;97050.27;1728653;83;20981;-82
2021/11/07 01:40:24;;;;;;;4.58;3.20;;;;;;;5.24;67.38;97047.53;1741895;82;20996;-81
2021/11/07 01:42:58;;;;;;;6.60;4.17;;;;;;;5.33;67.63;97047.20;1741613;82;21021;-81
2021/11/07 01:45:26;;;;;;;6.22;3.25;;;;;;;5.32;67.39;97039.94;1755606;82;21101;-82
2021/11/07 01:48:03;;;;;;;4.95;3.60;;;;;;;5.29;67.27;97038.11;1757512;82;21033;-82
2021/11/07 01:50:22;;;;;;;14.87;8.63;;;;;;;5.28;67.13;97032.62;1755011;82;21072;-81
2021/11/07 01:52:54;;;;;;;15.15;11.00;;;;;;;5.30;67.09;97032.00;1757220;81;20993;-82
2021/11/07 01:55:18;;;;;;;8.78;5.25;;;;;;;5.30;67.20;97017.36;1756943;82;21383;-82
2021/11/07 01:57:43;;;;;;;19.50;8.78;;;;;;;5.30;67.09;97005.77;1757104;82;21080;-81
2021/11/07 02:00:15;;;;;;;6.60;4.05;;;;;;;5.29;67.16;97002.84;1757437;81;21096;-82
2021/11/07 02:02:40;;;;;;;6.53;4.00;;;;;;;5.23;67.03;97009.02;1757172;81;21363;-81
2021/11/07 02:05:07;;;;;;;14.35;7.58;;;;;;;5.21;67.07;97018.17;1757459;82;20993;-82
2021/11/07 02:07:34;;;;;;;12.13;6.87;;;;;;;5.21;66.91;97027.19;1712884;83;21518;-81
2021/11/07 02:10:00;;;;;;;12.95;7.17;;;;;;;5.22;66.95;97034.45;1757254;82;20963;-82
2021/11/07 02:12:26;;;;;;;9.48;6.87;;;;;;;5.20;66.79;97031.97;1730794;83;21391;-82
2021/11/07 02:14:52;;;;;;;10.98;6.28;;;;;;;5.22;66.72;97024.14;1757323;82;20967;-81
2021/11/07 02:17:17;;;;;;;14.65;9.88;;;;;;;5.24;66.62;97019.19;1730865;83;20977;-82
2021/11/07 02:19:44;;;;;;;10.10;6.20;;;;;;;5.26;66.50;97017.30;1757759;82;20975;-82
2021/11/07 02:22:10;;;;;;;14.05;6.80;;;;;;;5.28;66.41;97014.10;1730940;83;21037;-82
2021/11/07 02:24:37;;;;;;;18.55;8.85;;;;;;;5.30;66.47;97009.62;1757574;82;21032;-82
2021/11/07 02:27:04;;;;;;;8.63;4.50;;;;;;;5.36;66.41;97006.50;1730841;83;20988;-82
2021/11/07 02:29:30;;;;;;;14.00;7.70;;;;;;;5.44;66.34;97007.14;1757578;82;20960;-82
2021/11/07 02:31:56;;;;;;;9.45;6.10;;;;;;;5.50;66.09;97005.78;1731031;83;21980;-82
2021/11/07 02:34:24;;;;;;;9.88;5.65;;;;;;;5.52;66.12;97007.27;1757485;82;21016;-81
2021/11/07 02:36:50;;;;;;;6.92;4.42;;;;;;;5.53;66.09;97006.79;1730876;83;21096;-82
2021/11/07 02:39:16;;;;;;;6.33;3.80;;;;;;;5.54;66.04;96997.66;1757274;82;21071;-81
2021/11/07 02:41:44;;;;;;;13.45;8.03;;;;;;;5.57;65.97;96990.94;1730883;83;21032;-81
2021/11/07 02:44:10;;;;;;;6.10;4.47;;;;;;;5.56;65.88;96978.19;1730649;83;21502;-82
2021/11/07 02:46:36;;;;;;;4.20;2.90;;;;;;;5.55;65.84;96976.56;1757498;82;21101;-81
2021/11/07 02:49:04;;;;;;;4.58;3.15;;;;;;;5.50;65.81;96965.83;1730811;83;21085;-82
2021/11/07 02:51:34;;;;;;;3.80;3.17;;;;;;;5.46;65.95;96961.90;1757480;82;20984;-82
2021/11/07 02:54:03;;;;;;;15.85;7.58;;;;;;;5.41;66.40;96962.31;1730819;83;20973;-82
2021/11/07 02:56:29;;;;;;;5.87;3.50;;;;;;;5.40;66.05;96961.50;1757568;82;21034;-82
2021/11/07 02:58:54;;;;;;;3.95;3.17;;;;;;;5.45;66.20;96968.00;1730678;83;21053;-82
2021/11/07 03:01:23;;;;;;;3.67;2.80;;;;;;;5.42;66.24;96967.33;1757367;82;20941;-82
2021/11/07 03:03:51;;;;;;;3.92;2.67;;;;;;;5.39;66.14;96959.06;1730560;83;21391;-81
2021/11/07 03:06:16;;;;;;;4.30;3.22;;;;;;;5.37;66.63;96952.76;1757447;82;21004;-82
2021/11/07 03:08:43;;;;;;;3.87;2.80;;;;;;;5.33;66.35;96955.24;1730759;83;21021;-82
2021/11/07 03:11:11;;;;;;;2.33;1.87;;;;;;;5.29;66.79;96950.02;1757375;82;20980;-82
2021/11/07 03:13:38;;;;;;;4.83;2.60;;;;;;;5.22;66.88;96952.00;1731159;83;21339;-82
2021/11/07 03:16:08;;;;;;;3.75;2.50;;;;;;;5.18;67.21;96947.56;1757497;82;20979;-82
2021/11/07 03:18:35;;;;;;;3.42;2.70;;;;;;;5.11;67.16;96948.59;1730579;83;21136;-82
2021/11/07 03:21:04;;;;;;;3.45;2.30;;;;;;;5.06;67.37;96957.67;1732040;82;21344;-82
2021/11/07 03:23:30;;;;;;;3.67;2.45;;;;;;;5.01;67.41;96962.39;1756821;82;21533;-82
2021/11/07 03:26:07;;;;;;;7.70;4.20;;;;;;;4.99;67.56;96952.70;1757518;82;21000;-82
2021/11/07 03:28:32;;;;;;;6.72;4.60;;;;;;;5.04;67.13;96946.66;1756818;82;21044;-82
2021/11/07 03:31:08;;;;;;;4.15;2.47;;;;;;;5.12;66.96;96941.67;1757222;82;20989;-82
2021/11/07 03:33:36;;;;;;;2.77;2.10;;;;;;;5.20;67.32;96931.50;1756062;82;20977;-82
2021/11/07 03:35:58;;;;;;;3.92;2.27;;;;;;;5.23;66.74;96920.95;1755775;82;20989;-82
2021/11/07 03:38:24;;;;;;;4.60;2.72;;;;;;;5.31;66.79;96915.10;1757153;82;21474;-81
2021/11/07 03:40:50;;;;;;;3.05;2.30;;;;;;;5.33;67.06;96906.28;1757476;82;20974;-81
2021/11/07 03:43:16;;;;;;;3.30;2.50;;;;;;;5.33;66.89;96907.57;1757275;82;20974;-82
2021/11/07 03:45:42;;;;;;;2.87;2.15;;;;;;;5.32;66.78;96906.42;1757440;82;20993;-81
2021/11/07 03:48:08;;;;;;;3.17;2.30;;;;;;;5.30;66.68;96901.41;1757495;82;20965;-81
2021/11/07 03:50:34;;;;;;;2.77;2.30;;;;;;;5.30;66.59;96908.33;1757251;81;21037;-82
2021/11/07 03:53:00;;;;;;;3.87;2.42;;;;;;;5.29;66.90;96913.14;1757249;82;21086;-82
2021/11/07 03:55:26;;;;;;;3.08;2.80;;;;;;;5.27;66.96;96913.75;1757486;82;21445;-81
2021/11/07 03:57:52;;;;;;;2.90;2.10;;;;;;;5.25;67.35;96913.89;1730822;83;20950;-82
2021/11/07 04:00:19;;;;;;;5.10;3.05;;;;;;;5.22;67.48;96919.80;1757350;82;21385;-82
2021/11/07 04:02:45;;;;;;;4.92;3.27;;;;;;;5.24;67.33;96925.15;1730976;83;20981;-82
2021/11/07 04:05:11;;;;;;;6.33;3.98;;;;;;;5.33;67.11;96919.16;1731043;83;21035;-82
2021/11/07 04:07:38;;;;;;;5.97;4.03;;;;;;;5.43;67.28;96924.33;1729783;82;21053;-82
2021/11/07 04:10:07;;;;;;;8.60;5.72;;;;;;;5.48;66.93;96921.34;1730636;83;21451;-82
2021/11/07 04:12:33;;;;;;;3.17;2.40;;;;;;;5.56;66.69;96915.84;1757492;82;20991;-82
2021/11/07 04:14:59;;;;;;;5.28;3.20;;;;;;;5.67;66.32;96903.27;1730821;83;20958;-82
2021/11/07 04:17:24;;;;;;;5.37;3.77;;;;;;;5.78;66.40;96905.70;1757399;82;21322;-82
2021/11/07 04:19:50;;;;;;;4.45;3.98;;;;;;;5.88;65.98;96895.38;1730663;83;21052;-81
2021/11/07 04:22:16;;;;;;;20.05;10.40;;;;;;;5.97;65.67;96893.25;1716126;83;20961;-82
2021/11/07 04:24:42;;;;;;;9.60;5.30;;;;;;;6.07;65.22;96894.53;1757366;82;21364;-81
2021/11/07 04:27:08;;;;;;;14.40;7.45;;;;;;;6.15;65.51;96897.20;1757341;82;20965;-81
2021/11/07 04:29:34;;;;;;;4.92;3.60;;;;;;;6.18;65.19;96887.44;1757476;82;21326;-81
2021/11/07 04:31:59;;;;;;;6.45;4.03;;;;;;;6.23;64.93;96888.29;1757560;82;21009;-82
2021/11/07 04:34:25;;;;;;;4.25;3.20;;;;;;;6.24;64.78;96879.11;1757273;82;20949;-81
2021/11/07 04:36:51;;;;;;;3.10;2.80;;;;;;;6.28;64.30;96881.73;1757353;82;20994;-82
2021/11/07 04:39:17;;;;;;;12.73;7.45;;;;;;;6.33;64.11;96878.72;1720008;83;21098;-82
2021/11/07 04:41:43;;;;;;;11.05;6.25;;;;;;;6.37;63.68;96868.94;1712495;84;20993;-82
2021/11/07 04:44:09;;;;;;;4.90;2.90;;;;;;;6.41;63.42;96851.73;1725435;83;21040;-82
2021/11/07 04:46:36;;;;;;;5.58;3.30;;;;;;;6.48;63.04;96841.62;1725282;83;21403;-82
2021/11/07 04:49:01;;;;;;;4.75;3.17;;;;;;;6.56;61.57;96844.31;1732828;83;21041;-82
2021/11/07 04:51:27;;;;;;;9.25;6.05;;;;;;;6.66;61.95;96840.36;1732792;83;21332;-82
2021/11/07 04:53:53;;;;;;;11.97;6.50;;;;;;;6.72;61.23;96820.42;1732907;83;20990;-82
2021/11/07 04:56:19;;;;;;;11.95;5.95;;;;;;;6.72;61.23;96820.42;1732808;83;20946;-81
2021/11/07 04:58:45;;;;;;;5.33;3.25;;;;;;;6.82;61.57;96818.08;1708138;83;21016;-82
2021/11/07 05:01:11;;;;;;;4.53;3.02;;;;;;;6.85;60.63;96809.25;1732725;83;21460;-82
2021/11/07 05:03:36;;;;;;;2.90;2.12;;;;;;;6.89;61.71;96801.53;1732951;83;21027;-82
2021/11/07 05:06:02;;;;;;;2.40;1.98;;;;;;;6.90;61.12;96796.70;1708117;83;21005;-82
2021/11/07 05:08:28;;;;;;;3.95;2.12;;;;;;;6.94;60.36;96786.39;1733019;83;21012;-83
2021/11/07 05:10:54;;;;;;;3.10;2.08;;;;;;;6.99;60.31;96789.33;1732845;83;21001;-82
2021/11/07 05:13:20;;;;;;;2.75;1.90;;;;;;;7.01;60.65;96782.75;1732903;83;20977;-82
2021/11/07 05:15:46;;;;;;;3.22;2.42;;;;;;;7.02;60.59;96785.66;1732966;83;20973;-82
2021/11/07 05:18:12;;;;;;;2.60;1.92;;;;;;;7.02;60.59;96781.30;1732927;83;21076;-81
2021/11/07 05:20:38;;;;;;;3.87;1.82;;;;;;;7.02;60.25;96751.59;1732924;83;21921;-82
2021/11/07 05:23:03;;;;;;;4.40;2.77;;;;;;;7.01;59.95;96759.02;1732999;83;20985;-82
2021/11/07 05:25:29;;;;;;;3.33;1.80;;;;;;;7.01;59.50;96749.97;1733049;83;21001;-82
2021/11/07 05:27:55;;;;;;;1.77;1.60;;;;;;;7.03;58.12;96736.90;1732856;83;20918;-82
2021/11/07 05:30:21;;;;;;;2.92;1.90;;;;;;;7.07;58.90;96724.00;1732954;83;20966;-82
2021/11/07 05:32:47;;;;;;;2.45;1.67;;;;;;;7.10;58.54;96720.62;1732726;83;21021;-82
2021/11/07 05:35:18;;;;;;;2.80;1.55;;;;;;;7.08;58.53;96712.22;1733113;83;21427;-82
2021/11/07 05:37:44;;;;;;;2.05;1.50;;;;;;;7.11;57.94;96716.27;1732999;83;21054;-82
2021/11/07 05:40:10;;;;;;;2.90;1.75;;;;;;;7.14;58.07;96719.83;1738282;82;21375;-81
2021/11/07 05:42:36;;;;;;;4.40;2.22;;;;;;;7.18;57.58;96719.88;1739026;82;20997;-82
2021/11/07 05:45:03;;;;;;;2.98;1.80;;;;;;;7.21;57.31;96719.57;1739290;82;21047;-82
2021/11/07 05:47:29;;;;;;;3.72;1.95;;;;;;;7.24;57.42;96702.46;1739273;82;21047;-82
2021/11/07 05:49:55;;;;;;;1.67;1.30;;;;;;;7.30;56.31;96703.61;1739185;82;20957;-82
2021/11/07 05:52:20;;;;;;;6.22;3.35;;;;;;;7.37;55.66;96684.77;1739412;82;20988;-82
2021/11/07 05:54:46;;;;;;;10.80;5.20;;;;;;;7.42;55.40;96680.42;1757804;81;20996;-82
2021/11/07 05:57:12;;;;;;;4.87;3.10;;;;;;;7.45;55.28;96674.45;1731101;83;20954;-82
2021/11/07 05:59:38;;;;;;;5.05;2.60;;;;;;;7.51;55.33;96682.90;1757880;82;20975;-82
2021/11/07 06:02:04;;;;;;;4.40;2.75;;;;;;;7.56;54.88;96717.34;1731142;83;20984;-82
2021/11/07 06:04:30;;;;;;;2.25;1.80;;;;;;;7.56;55.29;96724.28;1757586;82;21047;-82
2021/11/07 06:06:56;;;;;;;2.87;2.15;;;;;;;7.52;54.69;96718.61;1731028;83;21056;-82
2021/11/07 06:09:21;;;;;;;9.68;5.25;;;;;;;7.57;55.94;96731.08;1757840;82;21054;-82
2021/11/07 06:11:47;;;;;;;8.55;4.05;;;;;;;7.59;55.86;96726.55;1704239;83;20974;-82
2021/11/07 06:14:13;;;;;;;2.62;1.85;;;;;;;7.61;55.44;96712.98;1757599;82;21018;-82
2021/11/07 06:16:39;;;;;;;4.72;2.52;;;;;;;7.61;55.89;96707.33;1730920;83;21020;-82
2021/11/07 06:19:05;;;;;;;3.52;2.02;;;;;;;7.63;56.61;96708.47;1731076;83;21009;-82
2021/11/07 06:21:32;;;;;;;4.03;1.95;;;;;;;7.65;57.02;96704.78;1757693;82;20995;-82
2021/11/07 06:23:58;;;;;;;1.80;1.30;;;;;;;7.68;57.46;96708.34;1731060;83;21328;-82
2021/11/07 06:26:24;;;;;;;2.55;1.72;;;;;;;7.74;57.43;96707.72;1699225;83;21091;-82
2021/11/07 06:28:52;;;;;;;3.25;1.77;;;;;;;7.81;57.59;96715.19;1757644;82;21095;-82
2021/11/07 06:31:22;;;;;;;4.85;3.08;;;;;;;7.86;56.94;96723.77;1730991;83;20989;-82
2021/11/07 06:33:49;;;;;;;3.72;2.62;;;;;;;7.91;56.70;96740.11;1731525;83;21084;-82
2021/11/07 06:36:15;;;;;;;2.47;1.85;;;;;;;7.91;56.84;96736.23;1757638;82;20934;-82
2021/11/07 06:38:41;;;;;;;3.02;2.35;;;;;;;7.92;56.62;96735.27;1758072;81;21009;-82
2021/11/07 06:41:07;;;;;;;2.62;2.27;;;;;;;7.92;57.19;96727.50;1760589;81;20961;-82
2021/11/07 06:43:33;;;;;;;2.72;2.00;;;;;;;7.92;57.64;96712.78;1760773;81;21101;-82
2021/11/07 06:45:59;;;;;;;4.53;3.90;;;;;;;7.91;57.61;96715.53;1760796;81;21042;-82
2021/11/07 06:48:24;;;;;;;3.15;2.05;;;;;;;7.89;56.65;96698.88;1760632;81;21385;-82
2021/11/07 06:50:50;;;;;;;1.77;1.40;;;;;;;7.91;55.94;96693.05;1734021;83;21433;-82
2021/11/07 06:53:17;;;;;;;1.90;1.45;;;;;;;7.92;55.25;96705.02;1760707;81;21046;-82
2021/11/07 06:55:43;;;;;;;2.77;2.40;;;;;;;7.94;56.27;96710.04;1733902;83;20993;-82
2021/11/07 06:58:09;;;;;;;3.67;2.58;;;;;;;7.94;56.39;96711.33;1760758;81;21046;-82
2021/11/07 07:00:35;;;;;;;3.10;2.00;;;;;;;7.95;56.38;96718.13;1734037;83;21127;-82
2021/11/07 07:03:01;;;;;;;2.67;1.70;;;;;;;7.96;55.67;96713.27;1733710;83;21048;-82
2021/11/07 07:05:27;;;;;;;2.40;1.50;;;;;;;8.01;56.23;96729.16;1760955;81;21051;-82
2021/11/07 07:07:55;;;;;;;2.62;1.80;;;;;;;8.04;56.19;96730.14;1733839;83;21104;-82
2021/11/07 07:10:27;;;;;;;2.98;2.33;;;;;;;8.07;55.94;96729.81;1735253;81;21124;-82
2021/11/07 07:12:56;;;;;;;2.85;1.70;;;;;;;8.08;55.71;96718.49;1759363;81;21085;-82
2021/11/07 07:15:22;;;;;;;2.55;1.65;;;;;;;8.09;56.14;96717.53;1759615;81;21384;-82
2021/11/07 07:35:41;;;;;;;1.67;1.20;;;;;;;8.53;54.97;96672.00;1760773;81;20989;-82
2021/11/07 07:38:07;;;;;;;1.52;0.98;;;;;;;8.55;55.04;96663.09;1760963;81;21013;-81
2021/11/07 07:40:33;;;;;;;1.65;1.15;;;;;;;8.59;54.06;96661.79;1758313;81;21105;-81
2021/11/07 07:42:58;;;;;;;1.65;1.30;;;;;;;8.63;53.94;96667.48;1758144;82;20957;-82
2021/11/07 07:45:25;;;;;;;2.00;1.75;;;;;;;8.68;54.35;96655.65;1758101;81;21045;-82
2021/11/07 07:47:51;;;;;;;2.02;1.30;;;;;;;8.75;53.55;96654.98;1757879;82;21012;-81
2021/11/07 07:50:18;;;;;;;2.27;1.22;;;;;;;8.81;53.83;96650.47;1758241;82;21037;-82
2021/11/07 07:52:45;;;;;;;2.02;1.20;;;;;;;8.84;53.27;96649.64;1757731;82;21049;-82
2021/11/07 07:55:12;;;;;;;2.85;1.57;;;;;;;8.87;53.62;96631.66;1757750;82;21531;-81
2021/11/07 07:57:38;;;;;;;2.10;1.57;;;;;;;8.87;54.13;96636.84;1757916;82;21069;-82
2021/11/07 08:00:08;;;;;;;1.50;1.20;;;;;;;8.84;54.17;96635.88;1757886;82;21053;-82
2021/11/07 08:02:34;;;;;;;2.08;1.45;;;;;;;8.80;54.54;96624.23;1757110;82;21013;-82
2021/11/07 08:04:59;;;;;;;2.17;1.40;;;;;;;8.76;54.52;96628.10;1757698;82;20968;-82
2021/11/07 08:07:26;;;;;;;3.05;1.60;;;;;;;8.70;54.66;96625.20;1757857;81;21366;-82
2021/11/07 08:09:54;;;;;;;2.45;1.40;;;;;;;8.68;54.76;96624.56;1757737;82;21362;-82
2021/11/07 08:12:21;;;;;;;2.83;1.57;;;;;;;8.68;54.52;96624.56;1757815;82;20988;-82
2021/11/07 08:14:47;;;;;;;2.62;1.70;;;;;;;8.71;54.94;96627.30;1757885;82;20954;-81
2021/11/07 08:17:13;;;;;;;2.47;1.85;;;;;;;8.73;55.28;96613.21;1757865;82;20973;-81
2021/11/07 08:19:40;;;;;;;3.17;1.62;;;;;;;8.71;55.43;96615.16;1757664;82;21048;-81
2021/11/07 08:22:07;;;;;;;2.25;1.52;;;;;;;8.69;55.67;96615.01;1758038;81;21049;-82
2021/11/07 08:24:35;;;;;;;3.22;1.57;;;;;;;8.70;55.88;96606.27;1757875;82;21049;-81
2021/11/07 08:27:03;;;;;;;1.98;1.50;;;;;;;8.77;55.72;96612.39;1710449;82;21045;-82
2021/11/07 08:29:29;;;;;;;2.33;1.90;;;;;;;8.84;55.70;96610.78;1757895;82;20997;-82
2021/11/07 08:31:56;;;;;;;3.22;1.57;;;;;;;8.89;55.91;96600.72;1757847;82;21001;-81
2021/11/07 08:34:27;;;;;;;2.67;1.55;;;;;;;8.93;56.09;96604.58;1757641;82;21091;-82
2021/11/07 08:37:05;;;;;;;2.40;1.70;;;;;;;8.97;56.14;96583.86;1757086;82;21040;-81
2021/11/07 08:39:35;;;;;;;5.92;2.50;;;;;;;9.01;56.28;96589.03;1756845;82;21451;-81
2021/11/07 08:42:02;;;;;;;3.17;1.65;;;;;;;9.07;56.70;96598.40;1709091;82;21041;-82
2021/11/07 09:00:50;;;;;;;2.90;2.30;;;;;;;9.23;56.54;96577.11;1758079;82;21050;-81
2021/11/07 09:08:26;;;;;;;3.00;1.95;;;;;;;9.35;56.26;96582.74;1731226;83;21041;-82
2021/11/07 09:10:53;;;;;;;4.80;2.30;;;;;;;9.42;56.40;96578.48;1731273;83;21000;-82
2021/11/07 09:13:19;;;;;;;4.45;2.50;;;;;;;9.48;56.47;96570.05;1757887;82;20998;-82
2021/11/07 09:15:47;;;;;;;2.00;1.55;;;;;;;9.51;56.41;96562.41;1731321;83;20973;-82
2021/11/07 09:18:13;;;;;;;4.20;2.00;;;;;;;9.57;56.66;96563.02;1757928;82;20991;-82
2021/11/07 09:23:27;;;;;;;2.95;1.65;;;;;;;9.68;56.37;96556.64;1758019;82;20972;-82
2021/11/07 09:28:35;;;;;;;3.40;2.35;;;;;;;9.78;56.39;96549.45;1656733;86;21004;-82
2021/11/07 09:38:46;;;;;;;3.87;2.10;;;;;;;9.94;56.09;96548.04;1742558;82;21008;-82
2021/11/07 09:41:14;;;;;;;4.47;2.47;;;;;;;9.96;56.46;96546.56;1726739;82;20990;-82
2021/11/07 09:43:42;;;;;;;3.55;2.52;;;;;;;9.99;56.25;96557.41;1732416;83;20998;-82
2021/11/07 09:46:21;;;;;;;3.87;1.90;;;;;;;10.02;56.29;96558.34;1733195;83;21061;-82
2021/11/07 09:48:43;;;;;;;3.02;2.35;;;;;;;10.06;56.60;96554.42;1732012;83;21387;-82
2021/11/07 09:51:16;;;;;;;3.15;2.40;;;;;;;10.05;55.88;96537.72;1733278;83;21033;-82
2021/11/07 09:53:35;;;;;;;4.00;2.65;;;;;;;10.02;56.22;96535.48;1732078;83;21049;-81
2021/11/07 09:56:01;;;;;;;4.42;2.52;;;;;;;10.01;56.23;96529.48;1733330;83;21040;-82
2021/11/07 09:58:26;;;;;;;3.87;2.15;;;;;;;10.03;56.24;96527.52;1733530;83;21368;-82
2021/11/07 10:00:54;;;;;;;4.33;2.45;;;;;;;10.08;56.63;96530.38;1733551;83;20977;-82
2021/11/07 10:03:21;;;;;;;4.72;2.62;;;;;;;10.14;56.38;96528.41;1708419;83;20937;-82
2021/11/07 10:05:50;;;;;;;4.03;2.58;;;;;;;10.14;56.10;96536.20;1733523;83;20954;-82
2021/11/07 10:08:16;;;;;;;3.65;2.50;;;;;;;10.14;55.93;96531.49;1733212;83;20981;-82
2021/11/07 10:10:52;;;;;;;3.42;2.83;;;;;;;10.11;56.20;96524.87;1733304;83;21431;-82
2021/11/07 10:13:29;;;;;;;3.20;2.65;;;;;;;10.04;56.31;96522.63;1732210;83;21009;-82
2021/11/07 10:16:07;;;;;;;3.47;1.95;;;;;;;10.03;56.09;96527.52;1733447;83;20986;-82
2021/11/07 10:18:55;;;;;;;4.05;2.87;;;;;;;10.07;56.56;96536.56;1733376;83;21025;-82
2021/11/07 10:21:26;;;;;;;3.60;2.40;;;;;;;10.12;56.27;96533.46;1731740;83;20993;-82
2021/11/07 10:24:09;;;;;;;4.67;3.50;;;;;;;10.17;56.95;96533.24;1733323;83;21016;-82
2021/11/07 10:26:38;;;;;;;4.17;3.08;;;;;;;10.26;56.99;96530.63;1732830;83;20985;-82
2021/11/07 10:29:06;;;;;;;4.47;3.20;;;;;;;10.17;56.50;96540.23;1733429;83;20985;-82
2021/11/07 10:31:39;;;;;;;4.87;3.83;;;;;;;10.03;56.51;96535.30;1733390;83;21088;-82
2021/11/07 10:48:00;;;;;;;4.83;3.70;;;;;;;9.21;57.88;96510.36;1733344;83;21020;-82
2021/11/07 10:53:01;;;;;;;4.25;3.33;;;;;;;9.02;58.40;96483.08;1733452;83;21061;-82
2021/11/07 10:55:30;;;;;;;5.35;4.33;;;;;;;9.01;58.46;96480.66;1733575;83;21364;-82
2021/11/07 10:57:59;;;;;;;5.00;3.50;;;;;;;9.02;59.00;96468.83;1733390;83;21466;-82
2021/11/07 11:00:44;;;;;;;5.55;3.77;;;;;;;9.12;58.98;96472.52;1733120;83;21018;-82
2021/11/07 11:03:16;;;;;;;4.08;3.33;;;;;;;9.22;58.94;96464.50;1733161;83;21010;-82
2021/11/07 11:05:53;;;;;;;3.35;2.80;;;;;;;9.33;58.98;96462.83;1715008;83;21054;-82
2021/11/07 11:08:28;;;;;;;4.53;3.27;;;;;;;9.44;58.88;96451.26;1733558;83;21293;-82
2021/11/07 11:32:36;;;;;;;4.12;3.72;;;;;;;9.69;58.06;96418.95;1714994;84;20951;-82
2021/11/07 11:35:09;;;;;;;4.22;3.35;;;;;;;9.65;58.00;96408.61;1714110;84;21009;-82
2021/11/07 11:40:13;;;;;;;4.50;3.25;;;;;;;9.62;58.13;96389.02;1738680;81;21059;-82
2021/11/07 11:42:45;;;;;;;4.90;3.60;;;;;;;9.62;58.29;96396.80;1730661;83;21140;-82
2021/11/07 11:45:05;;;;;;;6.15;4.35;;;;;;;9.61;58.18;96391.80;1754917;82;21073;-81
2021/11/07 11:50:40;;;;;;;5.60;4.65;;;;;;;9.54;58.25;96384.38;1758121;82;21393;-82
2021/11/07 11:55:41;;;;;;;5.28;4.05;;;;;;;9.45;58.38;96370.69;1758339;82;20989;-82
2021/11/07 12:06:46;;;;;;;5.87;4.33;;;;;;;9.17;58.37;96346.27;1731223;83;21078;-82
2021/11/07 12:09:37;;;;;;;6.40;4.45;;;;;;;9.12;58.58;96334.33;1712290;82;21003;-82
2021/11/07 12:12:08;;;;;;;4.37;3.98;;;;;;;9.04;58.54;96317.03;1738663;82;21021;-82
2021/11/07 12:14:52;;;;;;;6.20;4.30;;;;;;;9.00;58.74;96315.28;1739198;82;21072;-82
2021/11/07 12:17:29;;;;;;;4.95;3.90;;;;;;;9.00;58.96;96306.70;1734308;82;20958;-82
2021/11/07 12:19:55;;;;;;;5.90;4.40;;;;;;;9.00;58.73;96307.51;1729572;82;21387;-81
2021/11/07 12:22:30;;;;;;;6.95;4.62;;;;;;;9.00;58.59;96313.18;1730346;82;20930;-82
2021/11/07 12:25:07;;;;;;;4.42;3.98;;;;;;;8.98;58.52;96302.99;1758184;82;21001;-82
2021/11/07 12:27:52;;;;;;;5.25;3.80;;;;;;;8.97;58.32;96297.98;1757203;82;21495;-82
2021/11/07 12:30:27;;;;;;;4.00;3.58;;;;;;;8.95;58.10;96289.58;1758250;82;20997;-82
2021/11/07 12:33:16;;;;;;;4.47;4.03;;;;;;;8.92;58.31;96275.16;1757782;82;21384;-82
2021/11/07 12:36:01;;;;;;;4.80;4.25;;;;;;;8.87;58.27;96268.41;1757898;82;20966;-82
2021/11/07 12:41:19;;;;;;;4.25;3.72;;;;;;;8.83;58.42;96276.70;1757848;82;21459;-82
2021/11/07 12:43:52;;;;;;;4.58;3.98;;;;;;;8.81;58.10;96279.47;1757972;82;21140;-82
2021/11/07 12:46:42;;;;;;;4.35;3.60;;;;;;;8.84;58.31;96271.34;1758097;82;20946;-82
2021/11/07 12:49:18;;;;;;;4.10;3.45;;;;;;;8.86;58.46;96253.84;1756968;82;20989;-80
2021/11/07 12:51:54;;;;;;;4.22;3.05;;;;;;;8.90;58.04;96249.91;1758003;82;20982;-81
2021/11/07 12:54:26;;;;;;;6.03;4.17;;;;;;;8.97;57.48;96263.00;1757918;82;21446;-82
2021/11/07 12:57:05;;;;;;;4.80;4.37;;;;;;;9.01;57.66;96259.88;1758197;82;21030;-82
2021/11/07 12:59:44;;;;;;;4.17;3.77;;;;;;;9.06;57.73;96262.42;1758086;81;21029;-82
2021/11/07 13:02:28;;;;;;;4.45;3.70;;;;;;;9.09;56.70;96253.80;1758258;82;20989;-82
2021/11/07 13:05:09;;;;;;;3.92;3.17;;;;;;;9.13;56.97;96262.06;1757508;82;21363;-82
2021/11/07 13:07:45;;;;;;;4.83;3.40;;;;;;;9.18;55.83;96271.41;1758023;82;21399;-82
2021/11/07 13:10:22;;;;;;;4.20;3.40;;;;;;;9.23;55.53;96260.81;1757371;82;21002;-82
2021/11/07 13:12:46;;;;;;;5.83;3.67;;;;;;;9.28;55.55;96254.62;1756604;82;21007;-82
2021/11/07 13:29:34;;;;;;;3.62;3.20;;;;;;;9.40;55.18;96286.59;1757987;82;21040;-82
2021/11/07 13:35:02;;;;;;;4.97;3.72;;;;;;;9.42;54.99;96271.66;1716139;82;21039;-82
2021/11/07 13:37:57;;;;;;;6.20;4.20;;;;;;;9.42;54.87;96270.36;1730675;83;21529;-82
2021/11/07 13:40:27;;;;;;;3.87;2.67;;;;;;;9.40;54.55;96261.95;1715643;83;21098;-82
2021/11/07 13:43:04;;;;;;;4.47;3.50;;;;;;;9.37;53.61;96263.12;1726423;83;21071;-81
2021/11/07 13:45:32;;;;;;;4.28;3.15;;;;;;;9.37;53.16;96263.61;1756359;82;21676;-82
2021/11/07 13:48:00;;;;;;;3.25;2.87;;;;;;;9.35;53.75;96261.20;1717799;82;20961;-82
2021/11/07 13:50:32;;;;;;;71.00;48.78;;;;;;;9.36;53.63;96256.81;1741045;82;21029;-82
2021/11/07 13:53:02;;;;;;;23.27;18.75;;;;;;;9.35;53.87;96259.09;1741302;82;20985;-82
2021/11/07 13:55:32;;;;;;;6.37;4.95;;;;;;;9.34;54.32;96253.11;1740957;82;20981;-82
2021/11/07 13:58:14;;;;;;;19.82;14.85;;;;;;;9.30;54.31;96239.70;1740972;82;21383;-82
2021/11/07 14:00:40;;;;;;;4.08;3.30;;;;;;;9.28;54.35;96238.27;1741141;82;21015;-82
2021/11/07 14:03:12;;;;;;;9.00;5.12;;;;;;;9.25;53.83;96226.44;1740935;82;21323;-82
2021/11/07 14:05:42;;;;;;;4.47;3.35;;;;;;;9.25;53.82;96203.59;1740918;82;21383;-82
2021/11/07 14:08:08;;;;;;;10.78;5.95;;;;;;;9.23;53.84;96180.94;1739673;82;21053;-82
2021/11/07 14:10:35;;;;;;;6.47;3.95;;;;;;;9.19;53.42;96192.16;1740894;82;21175;-82
2021/11/07 14:13:10;;;;;;;5.90;4.17;;;;;;;9.18;53.99;96194.93;1741010;82;20984;-82
2021/11/07 14:15:38;;;;;;;20.05;8.98;;;;;;;9.17;54.77;96201.09;1741065;82;21016;-82
2021/11/07 14:18:22;;;;;;;9.98;7.25;;;;;;;9.14;55.07;96196.27;1741081;82;21035;-82
2021/11/07 14:20:55;;;;;;;8.28;5.20;;;;;;;9.11;55.37;96196.60;1733753;83;20939;-82
2021/11/07 14:26:20;;;;;;;6.65;4.47;;;;;;;9.06;55.79;96178.20;1741054;82;20996;-82
2021/11/07 14:29:16;;;;;;;7.10;5.20;;;;;;;9.02;55.68;96181.63;1740418;82;21426;-82
2021/11/07 14:31:38;;;;;;;5.78;4.40;;;;;;;9.01;56.18;96188.61;1737352;82;21008;-82